Time;durP1;ratioP1;P1;durP2;ratioP2;P2;SDS_P1;SDS_P2;PMS_P1;PMS_P2;Temp;Humidity;BMP_temperature;BMP_pressure;BME280_temperature;BME280_humidity;BME280_pressure;Samples;Min_cycle;Max_cycle;Signal;HPM_P1;HPM_P2
2022/02/24 00:01:02;;;;;;;40.47;5.90;;;;;;;3.99;100.00;99920.38;4811173;29;20027;-83
2022/02/24 00:03:28;;;;;;;46.17;5.78;;;;;;;4.58;100.00;100015.63;4794798;29;20030;-83
2022/02/24 00:05:56;;;;;;;44.28;5.72;;;;;;;4.42;100.00;99983.78;4795821;29;20024;-85
2022/02/24 00:08:22;;;;;;;41.95;6.90;;;;;;;4.93;100.00;100062.13;4795263;29;20008;-82
2022/02/24 00:10:48;;;;;;;42.03;5.75;;;;;;;5.81;100.00;100187.81;4806399;29;20102;-84
2022/02/24 00:13:15;;;;;;;34.03;5.60;;;;;;;5.80;100.00;100196.84;4812548;29;20031;-85
2022/02/24 00:15:42;;;;;;;49.33;5.80;;;;;;;4.71;100.00;100002.50;4817715;29;20023;-84
2022/02/24 00:18:07;;;;;;;34.33;5.82;;;;;;;4.78;100.00;100009.78;4830655;29;20094;-84
2022/02/24 00:20:33;;;;;;;34.45;5.25;;;;;;;4.10;100.00;99905.81;4819285;29;20031;-84
2022/02/24 00:22:59;;;;;;;39.22;5.53;;;;;;;4.35;100.00;99943.72;4813500;29;20027;-84
2022/02/24 00:25:24;;;;;;;43.92;6.80;;;;;;;5.74;100.00;100149.53;4811311;29;20039;-85
2022/02/24 00:27:52;;;;;;;34.33;4.78;;;;;;;4.38;100.00;99945.22;4812162;29;20050;-84
2022/02/24 00:30:19;;;;;;;38.85;5.97;;;;;;;3.82;100.00;99848.84;4808632;29;20102;-84
2022/02/24 00:32:46;;;;;;;34.90;5.03;;;;;;;4.31;100.00;99917.66;4814831;29;20043;-85
2022/02/24 00:35:12;;;;;;;37.17;5.68;;;;;;;4.58;100.00;99949.00;4817957;29;20046;-84
2022/02/24 00:37:37;;;;;;;44.17;6.07;;;;;;;4.71;100.00;99970.53;4811977;29;20035;-84
2022/02/24 00:40:04;;;;;;;52.97;6.85;;;;;;;4.20;100.00;99886.94;4811767;29;20007;-85
2022/02/24 00:42:30;;;;;;;40.28;5.30;;;;;;;4.35;100.00;99890.47;4811548;29;20065;-85
2022/02/24 00:44:55;;;;;;;38.95;6.05;;;;;;;4.68;100.00;99973.56;4812101;29;20023;-84
2022/02/24 00:52:31;;;;;;;40.00;5.60;;;;;;;5.77;100.00;100109.13;5350441;24;20046;-85
2022/02/24 00:54:57;;;;;;;37.47;5.55;;;;;;;4.39;100.00;99918.38;4795115;29;20134;-85
2022/02/24 00:57:23;;;;;;;45.42;5.47;;;;;;;5.24;100.00;100026.47;4791525;29;20035;-83
2022/02/24 00:59:49;;;;;;;43.60;5.65;;;;;;;5.75;100.00;100117.28;4793276;29;20043;-83
2022/02/24 01:02:16;;;;;;;40.13;5.78;;;;;;;4.03;100.00;99825.03;5037597;24;20127;-85
2022/02/24 01:09:52;;;;;;;35.80;5.25;;;;;;;4.55;100.00;99916.56;5122261;24;20053;-84
2022/02/24 01:12:17;;;;;;;31.95;5.72;;;;;;;4.74;100.00;99923.22;4759904;30;20080;-84
2022/02/24 01:14:43;;;;;;;44.40;5.97;;;;;;;4.57;100.00;99890.56;4758786;30;20021;-84
2022/02/24 01:17:08;;;;;;;37.50;5.63;;;;;;;4.22;100.00;99851.13;4759861;30;20098;-84
2022/02/24 01:27:20;;;;;;;37.63;6.00;;;;;;;5.72;100.00;100074.13;5064756;24;20077;-84
2022/02/24 01:29:45;;;;;;;37.65;5.47;;;;;;;4.41;100.00;99870.28;4794193;29;20019;-85
2022/02/24 01:32:11;;;;;;;38.65;6.13;;;;;;;4.27;100.00;99820.47;4799341;29;20015;-84
2022/02/24 01:34:37;;;;;;;41.00;5.60;;;;;;;4.31;100.00;99829.75;4809618;29;20082;-84
2022/02/24 01:37:03;;;;;;;34.22;5.25;;;;;;;4.55;100.00;99858.78;4794193;29;20027;-84
2022/02/24 01:39:30;;;;;;;44.75;5.88;;;;;;;5.68;100.00;100030.97;4793449;30;20047;-85
2022/02/24 01:41:56;;;;;;;43.72;5.82;;;;;;;5.68;100.00;100027.47;4792330;29;20049;-83
2022/02/24 01:44:22;;;;;;;34.75;5.35;;;;;;;4.14;100.00;99791.78;4793797;29;20044;-85
2022/02/24 01:46:48;;;;;;;41.58;5.97;;;;;;;4.56;100.00;99873.75;4793264;29;20128;-85
2022/02/24 01:49:14;;;;;;;38.83;7.28;;;;;;;4.50;100.00;99857.66;4810314;29;20039;-85
2022/02/24 01:51:39;;;;;;;33.72;5.05;;;;;;;5.62;100.00;100029.84;4810509;29;20039;-85
2022/02/24 01:54:06;;;;;;;39.92;5.80;;;;;;;5.69;100.00;100021.09;4797328;29;20080;-84
2022/02/24 01:56:33;;;;;;;33.13;5.72;;;;;;;4.63;100.00;99842.69;4794019;29;20057;-85
2022/02/24 01:58:59;;;;;;;35.28;4.88;;;;;;;4.40;100.00;99810.00;4800310;29;20019;-85
2022/02/24 02:01:25;;;;;;;36.08;5.88;;;;;;;4.08;100.00;99756.09;4792508;29;20027;-85
2022/02/24 02:03:54;;;;;;;38.50;5.85;;;;;;;4.00;100.00;99735.69;4793342;29;20012;-84
2022/02/24 02:06:20;;;;;;;44.28;5.95;;;;;;;4.01;100.00;99744.53;4805353;29;20035;-84
2022/02/24 02:08:46;;;;;;;37.53;5.65;;;;;;;4.55;100.00;99818.81;4805131;29;20019;-82
2022/02/24 02:11:13;;;;;;;39.45;5.85;;;;;;;3.96;100.00;99726.44;4807610;29;20027;-85
2022/02/24 02:13:39;;;;;;;35.55;5.80;;;;;;;4.19;100.00;99744.16;4811064;29;20022;-85
2022/02/24 02:16:07;;;;;;;33.83;4.93;;;;;;;5.81;100.00;100017.78;4808457;29;20035;-84
2022/02/24 02:18:35;;;;;;;34.22;5.22;;;;;;;4.96;100.00;99890.28;4811723;29;20016;-84
2022/02/24 02:21:01;;;;;;;34.10;4.88;;;;;;;5.10;100.00;99905.47;4802600;29;20059;-85
2022/02/24 02:23:26;;;;;;;31.50;5.45;;;;;;;4.84;100.00;99846.47;4793006;29;20140;-85
2022/02/24 02:25:52;;;;;;;37.83;6.28;;;;;;;5.75;100.00;99975.00;4791204;29;20043;-85
2022/02/24 02:28:19;;;;;;;29.08;4.47;;;;;;;4.45;100.00;99757.84;4792669;29;20120;-84
2022/02/24 02:30:45;;;;;;;38.92;6.35;;;;;;;4.21;100.00;99699.56;4793613;29;20068;-83
2022/02/24 02:33:11;;;;;;;37.85;4.90;;;;;;;4.13;100.00;99716.44;4792803;29;20019;-84
2022/02/24 02:35:37;;;;;;;35.05;5.18;;;;;;;4.19;100.00;99734.34;4790939;29;20035;-84
2022/02/24 02:38:04;;;;;;;25.05;4.32;;;;;;;4.57;100.00;99774.19;4792538;29;20039;-84
2022/02/24 02:40:30;;;;;;;29.15;4.40;;;;;;;4.12;100.00;99695.34;4791825;29;20007;-84
2022/02/24 02:42:56;;;;;;;34.00;5.57;;;;;;;5.87;100.00;99962.81;4793283;29;20020;-84
2022/02/24 02:45:23;;;;;;;30.98;4.63;;;;;;;5.76;100.00;99942.78;4792576;29;20030;-84
2022/02/24 02:47:49;;;;;;;41.00;5.93;;;;;;;4.32;100.00;99703.56;4797865;29;20016;-85
2022/02/24 02:50:14;;;;;;;32.88;5.30;;;;;;;5.61;100.00;99918.78;4797102;29;20024;-85
2022/02/24 02:52:40;;;;;;;37.05;5.75;;;;;;;4.50;100.00;99733.28;4774837;30;20036;-84
2022/02/24 02:55:10;;;;;;;33.83;5.28;;;;;;;4.57;100.00;99754.69;4779410;29;20035;-85
2022/02/24 02:57:38;;;;;;;36.50;5.32;;;;;;;4.21;100.00;99683.56;4792585;29;20028;-83
2022/02/24 03:00:07;;;;;;;40.72;5.63;;;;;;;4.80;100.00;99779.41;4791704;29;20401;-85
2022/02/24 03:02:32;;;;;;;32.65;5.07;;;;;;;4.71;100.00;99773.34;4806944;29;20064;-84
2022/02/24 03:04:58;;;;;;;33.30;4.72;;;;;;;4.72;100.00;99774.97;4793427;29;20019;-84
2022/02/24 03:07:25;;;;;;;37.78;6.00;;;;;;;4.37;100.00;99712.66;4792898;29;20043;-84
2022/02/24 03:09:52;;;;;;;38.13;6.40;;;;;;;5.79;100.00;99923.69;4792321;29;20055;-85
2022/02/24 03:12:18;;;;;;;45.33;5.68;;;;;;;4.43;100.00;99703.09;4792220;29;20084;-83
2022/02/24 03:14:44;;;;;;;44.15;5.88;;;;;;;4.56;100.00;99723.75;4790532;29;20043;-83
2022/02/24 03:17:10;;;;;;;36.22;5.68;;;;;;;4.71;100.00;99765.34;4803201;29;20069;-82
2022/02/24 03:19:36;;;;;;;44.00;5.82;;;;;;;4.80;100.00;99775.88;4800038;29;20031;-84
2022/02/24 03:22:02;;;;;;;42.70;4.80;;;;;;;3.91;100.00;99626.88;4792584;29;20065;-84
2022/02/24 03:24:27;;;;;;;43.78;5.63;;;;;;;4.19;100.00;99697.06;4791060;29;20064;-83
2022/02/24 03:26:53;;;;;;;43.28;5.30;;;;;;;4.00;100.00;99645.19;4791377;29;20119;-84
2022/02/24 03:29:18;;;;;;;36.15;5.78;;;;;;;5.67;100.00;99935.06;4792118;29;20024;-84
2022/02/24 03:31:44;;;;;;;39.67;6.07;;;;;;;5.69;100.00;99901.00;4803947;29;20015;-83
2022/02/24 03:34:11;;;;;;;41.65;5.45;;;;;;;5.63;100.00;99906.09;4814342;29;20042;-83
2022/02/24 03:36:39;;;;;;;38.30;6.10;;;;;;;3.89;100.00;99636.88;4811461;29;20039;-84
2022/02/24 03:39:05;;;;;;;39.60;5.60;;;;;;;4.03;100.00;99648.50;4794461;29;20087;-82
2022/02/24 03:41:31;;;;;;;50.10;6.18;;;;;;;4.55;100.00;99712.25;4795659;29;20043;-84
2022/02/24 03:43:57;;;;;;;42.88;6.25;;;;;;;4.14;100.00;99666.66;4796093;29;20028;-84
2022/02/24 03:46:22;;;;;;;45.67;5.88;;;;;;;4.33;100.00;99689.25;4795494;29;20036;-84
2022/02/24 03:48:49;;;;;;;35.72;5.88;;;;;;;4.22;100.00;99686.03;4795480;29;20458;-83
2022/02/24 03:51:17;;;;;;;51.53;6.45;;;;;;;4.64;100.00;99744.97;4795585;29;20027;-84
2022/02/24 03:53:43;;;;;;;50.05;6.43;;;;;;;5.68;100.00;99915.38;4795160;29;20035;-83
2022/02/24 03:56:09;;;;;;;38.85;5.10;;;;;;;4.37;100.00;99696.69;4793049;29;20052;-83
2022/02/24 03:58:35;;;;;;;47.20;6.40;;;;;;;4.53;100.00;99734.75;4795755;29;20046;-83
2022/02/24 04:01:01;;;;;;;40.78;6.45;;;;;;;3.89;100.00;99627.06;4794477;29;20012;-83
2022/02/24 04:03:27;;;;;;;48.13;6.28;;;;;;;4.72;100.00;99742.19;4794278;29;20097;-84
2022/02/24 04:05:53;;;;;;;52.78;6.75;;;;;;;5.56;100.00;99878.50;4793906;29;20019;-84
2022/02/24 04:08:19;;;;;;;53.85;7.53;;;;;;;4.10;100.00;99658.22;4794125;29;20023;-84
2022/02/24 04:10:45;;;;;;;55.35;6.82;;;;;;;5.61;100.00;99894.78;4795914;29;20012;-83
2022/02/24 04:13:11;;;;;;;51.22;6.80;;;;;;;4.62;100.00;99738.97;4795067;29;20043;-83
2022/02/24 04:15:37;;;;;;;47.40;5.47;;;;;;;4.46;100.00;99735.50;4793441;29;20023;-82
2022/02/24 04:18:03;;;;;;;49.03;6.13;;;;;;;5.56;100.00;99929.22;4793382;30;20019;-81
2022/02/24 04:20:30;;;;;;;53.20;7.28;;;;;;;3.86;100.00;99677.16;4791351;30;20028;-82
2022/02/24 04:22:55;;;;;;;37.13;4.95;;;;;;;3.88;100.00;99723.06;4792034;30;20030;-83
2022/02/24 04:25:21;;;;;;;15.85;2.30;;;;;;;4.04;100.00;99768.13;4798166;30;20035;-82
2022/02/24 04:27:51;;;;;;;25.42;2.80;;;;;;;3.78;100.00;99759.75;4809436;29;20062;-83
2022/02/24 04:30:17;;;;;;;27.55;2.67;;;;;;;3.89;100.00;99789.38;4805678;29;20012;-82
2022/02/24 04:32:45;;;;;;;21.40;2.58;;;;;;;3.26;100.00;99690.34;4794155;30;20083;-83
2022/02/24 04:35:12;;;;;;;31.42;3.17;;;;;;;3.05;100.00;99677.75;4795072;30;20057;-82
2022/02/24 04:37:38;;;;;;;27.40;2.72;;;;;;;4.43;100.00;99889.53;4807190;30;20031;-83
2022/02/24 04:40:05;;;;;;;29.85;2.85;;;;;;;3.18;100.00;99706.41;4781174;29;20023;-82
2022/02/24 04:42:31;;;;;;;32.95;3.55;;;;;;;3.65;100.00;99793.09;4792700;30;20032;-83
2022/02/24 04:44:59;;;;;;;24.98;2.72;;;;;;;4.12;100.00;99849.75;4792655;30;20038;-83
2022/02/24 04:47:30;;;;;;;28.25;3.03;;;;;;;2.90;100.00;99654.78;4792367;30;20061;-83
2022/02/24 04:49:55;;;;;;;23.02;2.90;;;;;;;2.99;100.00;99688.25;4796283;30;20047;-82
2022/02/24 04:52:21;;;;;;;25.48;2.38;;;;;;;4.00;100.00;99865.31;4807333;29;20035;-83
2022/02/24 04:54:47;;;;;;;22.70;2.67;;;;;;;2.98;100.00;99723.78;4809742;29;20027;-83
2022/02/24 04:57:13;;;;;;;22.48;2.33;;;;;;;2.96;100.00;99717.84;4804258;29;20046;-82
2022/02/24 04:59:39;;;;;;;24.38;2.25;;;;;;;2.87;100.00;99701.13;4808080;30;20042;-81
2022/02/24 05:02:05;;;;;;;22.83;2.28;;;;;;;3.14;100.00;99744.94;4798041;30;20086;-82
2022/02/24 05:04:30;;;;;;;24.83;2.97;;;;;;;4.60;100.00;99951.47;4795735;30;20088;-82
2022/02/24 05:06:58;;;;;;;26.65;2.88;;;;;;;4.20;100.00;99909.06;4790483;29;20020;-82
2022/02/24 05:09:25;;;;;;;19.38;2.30;;;;;;;2.81;100.00;99692.03;4796802;30;20028;-82
2022/02/24 05:11:51;;;;;;;25.67;2.67;;;;;;;3.18;100.00;99756.91;4789750;30;20020;-83
2022/02/24 05:14:16;;;;;;;28.50;2.60;;;;;;;3.27;100.00;99760.31;4787551;30;20032;-82
2022/02/24 05:16:42;;;;;;;26.27;2.78;;;;;;;3.18;100.00;99748.91;4791914;29;20043;-85
2022/02/24 05:19:07;;;;;;;24.60;2.78;;;;;;;3.37;100.00;99782.16;4794253;29;20023;-81
2022/02/24 05:21:33;;;;;;;23.98;2.60;;;;;;;4.56;100.00;99959.00;4799935;29;20012;-83
2022/02/24 05:23:59;;;;;;;16.90;1.83;;;;;;;2.75;100.00;99695.41;4811182;29;20043;-82
2022/02/24 05:26:24;;;;;;;16.98;2.85;;;;;;;3.24;100.00;99760.66;4795479;29;20047;-81
2022/02/24 05:28:50;;;;;;;17.98;1.98;;;;;;;2.83;100.00;99694.50;4791764;29;20050;-83
2022/02/24 05:31:15;;;;;;;15.43;2.13;;;;;;;4.30;100.00;99926.63;4792552;29;20028;-84
2022/02/24 05:33:41;;;;;;;17.50;1.90;;;;;;;2.71;100.00;99670.16;4799655;29;20049;-84
2022/02/24 05:36:07;;;;;;;19.25;2.70;;;;;;;3.22;100.00;99762.69;4807761;29;20050;-84
2022/02/24 05:38:33;;;;;;;16.85;1.88;;;;;;;3.67;100.00;99815.00;4811554;29;20043;-84
2022/02/24 05:40:58;;;;;;;16.58;1.30;;;;;;;2.38;100.00;99635.03;4811851;29;20019;-84
2022/02/24 05:43:25;;;;;;;12.13;1.70;;;;;;;3.03;100.00;99726.75;4811974;29;20011;-83
2022/02/24 05:45:50;;;;;;;14.75;1.50;;;;;;;3.28;100.00;99746.03;4809260;29;20031;-84
2022/02/24 05:48:16;;;;;;;16.27;1.70;;;;;;;3.06;100.00;99727.22;4811687;29;20095;-85
2022/02/24 05:50:42;;;;;;;15.23;1.70;;;;;;;2.46;100.00;99644.78;4800639;29;20032;-84
2022/02/24 05:53:09;;;;;;;17.08;1.65;;;;;;;2.73;100.00;99685.94;4794363;29;20035;-85
2022/02/24 05:55:36;;;;;;;14.23;1.40;;;;;;;2.70;100.00;99689.78;4792714;29;20050;-82
2022/02/24 05:58:02;;;;;;;13.35;1.58;;;;;;;2.27;100.00;99616.84;4791999;29;20036;-83
2022/02/24 06:00:29;;;;;;;14.65;1.63;;;;;;;4.07;100.00;99908.00;4791337;30;20055;-82
2022/02/24 06:02:54;;;;;;;18.98;1.98;;;;;;;2.86;100.00;99711.94;4792724;29;20023;-85
2022/02/24 06:05:20;;;;;;;17.42;1.63;;;;;;;2.44;100.00;99638.81;4796178;29;20015;-84
2022/02/24 06:07:46;;;;;;;16.38;1.55;;;;;;;2.23;100.00;99596.97;4811464;29;20027;-84
2022/02/24 06:10:16;;;;;;;21.10;2.05;;;;;;;2.41;100.00;99617.94;4805158;29;20073;-86
2022/02/24 06:12:42;;;;;;;15.35;2.22;;;;;;;3.30;100.00;99774.06;4790977;29;20017;-86
2022/02/24 06:20:18;;;;;;;14.27;1.55;;;;;;;2.59;100.00;99631.75;5138690;24;20061;-81
2022/02/24 06:25:19;;;;;;;15.95;1.77;;;;;;;2.47;100.00;99612.72;4816650;24;20286;-84
2022/02/24 06:27:44;;;;;;;10.57;1.23;;;;;;;2.69;100.00;99650.94;4785569;29;20063;-82
2022/02/24 06:30:11;;;;;;;12.20;1.40;;;;;;;2.73;100.00;99628.34;4785357;30;20026;-83
2022/02/24 06:32:37;;;;;;;15.25;1.60;;;;;;;2.79;100.00;99640.09;4803149;29;20035;-83
2022/02/24 06:35:03;;;;;;;15.90;2.13;;;;;;;2.87;100.00;99653.28;4784229;30;20062;-82
2022/02/24 06:37:30;;;;;;;9.40;1.10;;;;;;;3.91;100.00;99805.19;4803258;29;20027;-83
2022/02/24 06:39:56;;;;;;;6.90;1.08;;;;;;;4.07;100.00;99836.13;4804436;29;20091;-83
2022/02/24 06:44:56;;;;;;;8.40;0.93;;;;;;;2.42;100.00;99571.78;5325563;24;20075;-85
2022/02/24 06:52:24;;;;;;;7.65;0.85;;;;;;;4.10;100.00;99833.94;4861503;24;20063;-83
2022/02/24 06:54:50;;;;;;;4.35;0.70;;;;;;;2.84;100.00;99627.09;4804094;29;20115;-85
2022/02/24 06:57:16;;;;;;;4.15;0.93;;;;;;;2.28;100.00;99529.06;4808026;29;20038;-84
2022/02/24 06:59:41;;;;;;;8.38;0.95;;;;;;;4.14;100.00;99821.94;4809942;29;20043;-83
2022/02/24 07:02:08;;;;;;;6.28;0.90;;;;;;;4.18;100.00;99846.34;4808876;29;20051;-83
2022/02/24 07:04:34;;;;;;;6.32;0.75;;;;;;;2.73;100.00;99625.66;4808454;29;20274;-84
2022/02/24 07:07:02;;;;;;;8.32;0.77;;;;;;;3.19;100.00;99705.38;4801686;29;20062;-82
2022/02/24 07:09:28;;;;;;;5.47;0.80;;;;;;;2.86;100.00;99634.88;4789874;30;20027;-82
2022/02/24 07:11:54;;;;;;;6.47;1.13;;;;;;;4.09;100.00;99840.28;4807384;29;20031;-83
2022/02/24 07:14:21;;;;;;;6.28;0.63;;;;;;;3.30;100.00;99730.72;4807399;29;20028;-82
2022/02/24 07:16:46;;;;;;;4.43;0.70;;;;;;;3.58;100.00;99776.19;4795670;29;20027;-80
2022/02/24 07:19:12;;;;;;;5.70;0.90;;;;;;;4.34;100.00;99874.63;4790861;29;20057;-80
2022/02/24 07:21:38;;;;;;;5.75;0.75;;;;;;;4.34;100.00;99874.63;4799949;29;20161;-81
2022/02/24 07:24:04;;;;;;;5.82;0.70;;;;;;;4.27;100.00;99863.06;4798277;29;20039;-82
2022/02/24 07:26:29;;;;;;;5.93;0.60;;;;;;;4.34;100.00;99867.50;4788635;29;20343;-78
2022/02/24 07:28:55;;;;;;;5.22;0.57;;;;;;;4.25;100.00;99855.28;4789647;29;20050;-75
2022/02/24 07:31:21;;;;;;;4.30;0.80;;;;;;;4.38;100.00;99860.78;4774605;30;20183;-77
2022/02/24 07:33:47;;;;;;;7.20;0.90;;;;;;;4.40;100.00;99863.25;4775575;30;20530;-77
2022/02/24 07:36:13;;;;;;;5.93;0.70;;;;;;;3.83;100.00;99762.66;4789149;29;20038;-78
2022/02/24 07:38:39;;;;;;;5.00;0.68;;;;;;;4.44;100.00;99860.06;4790636;29;20382;-78
2022/02/24 07:41:04;;;;;;;6.90;0.70;;;;;;;4.32;100.00;99831.41;4794806;30;20378;-78
2022/02/24 07:43:30;;;;;;;3.25;0.30;;;;;;;4.39;100.00;99835.00;4790826;30;20030;-77
2022/02/24 07:45:56;;;;;;;7.07;0.80;;;;;;;4.12;100.00;99794.66;4788896;29;20042;-77
2022/02/24 07:48:21;;;;;;;6.68;0.90;;;;;;;4.52;100.00;99859.16;4777771;29;20038;-77
2022/02/24 07:50:46;;;;;;;9.52;0.80;;;;;;;4.54;100.00;99865.13;4793275;29;20138;-76
2022/02/24 07:53:12;;;;;;;11.13;0.93;;;;;;;4.40;100.00;99837.47;4767650;29;20138;-78
2022/02/24 07:55:39;;;;;;;8.82;0.70;;;;;;;4.59;100.00;99870.72;4790634;29;20041;-78
2022/02/24 07:58:05;;;;;;;9.52;0.95;;;;;;;4.62;100.00;99875.69;4779876;29;20043;-78
2022/02/24 08:05:43;;;;;;;7.75;0.80;;;;;;;3.53;100.00;99674.84;5701437;24;21431;-85
2022/02/24 08:08:08;;;;;;;11.32;1.08;;;;;;;2.92;100.00;99581.03;5013952;24;20060;-82
2022/02/24 09:36:03;;;;;;;6.20;0.80;;;;;;;6.03;100.00;99798.88;4790409;30;20080;-82
2022/02/24 09:38:28;;;;;;;11.18;1.20;;;;;;;6.01;100.00;99775.03;4793438;30;20035;-84
2022/02/24 09:53:49;;;;;;;9.10;1.10;;;;;;;4.74;100.00;99555.47;5071162;24;19910;-84
2022/02/24 09:56:15;;;;;;;5.43;0.98;;;;;;;6.40;100.00;99819.06;4796516;29;20048;-82
2022/02/24 09:58:40;;;;;;;9.00;1.00;;;;;;;6.40;100.00;99818.25;4994160;24;20062;-84
2022/02/24 10:03:45;;;;;;;8.45;1.23;;;;;;;4.85;100.00;99598.41;5089625;24;20040;-84
2022/02/24 10:34:37;;;;;;;6.88;1.10;;;;;;;6.89;100.00;99769.94;4789780;24;20227;-82
2022/02/24 10:37:11;;;;;;;9.35;1.40;;;;;;;7.05;100.00;99803.50;4768665;30;20048;-82
2022/02/24 10:39:37;;;;;;;9.00;1.10;;;;;;;7.00;100.00;99781.91;4789833;29;20046;-82
2022/02/24 10:42:02;;;;;;;9.65;1.23;;;;;;;7.03;100.00;99798.38;4788962;29;20031;-84
2022/02/24 10:44:27;;;;;;;8.45;1.35;;;;;;;7.07;100.00;99799.63;4789063;29;20093;-84
2022/02/24 10:47:10;;;;;;;8.50;0.95;;;;;;;6.95;100.00;99793.19;4784080;30;20032;-85
2022/02/24 10:49:38;;;;;;;10.02;1.25;;;;;;;7.09;100.00;99791.41;4793540;29;20024;-83
2022/02/24 10:52:15;;;;;;;9.90;1.00;;;;;;;7.14;100.00;99799.63;4800354;29;20119;-83
2022/02/24 10:54:42;;;;;;;5.93;0.98;;;;;;;5.16;100.00;99480.69;5255235;24;20052;-83
2022/02/24 10:59:43;;;;;;;7.93;0.93;;;;;;;5.87;100.00;99586.38;4988257;24;19924;-82
2022/02/24 11:02:09;;;;;;;7.70;1.00;;;;;;;7.26;100.00;99799.91;4779230;30;20068;-82
2022/02/24 11:07:10;;;;;;;7.93;1.00;;;;;;;6.39;100.00;99649.09;4893458;24;20093;-81
2022/02/24 11:09:41;;;;;;;5.32;1.00;;;;;;;6.10;100.00;99616.28;5459657;24;20025;-80
2022/02/24 11:12:09;;;;;;;10.82;1.33;;;;;;;7.27;100.00;99796.19;4789111;29;20053;-80
2022/02/24 11:14:36;;;;;;;10.40;1.30;;;;;;;7.16;100.00;99780.72;4793596;30;20011;-82
2022/02/24 11:17:07;;;;;;;8.43;0.98;;;;;;;7.17;100.00;99795.75;4794163;29;20032;-83
2022/02/24 11:19:35;;;;;;;8.13;1.17;;;;;;;7.11;100.00;99786.66;4789713;29;20024;-83
2022/02/24 11:22:01;;;;;;;8.75;1.52;;;;;;;7.09;100.00;99779.91;4799947;29;20045;-85
2022/02/24 11:24:26;;;;;;;6.43;0.98;;;;;;;7.03;100.00;99773.50;4810303;29;20039;-83
2022/02/24 11:27:06;;;;;;;8.25;1.20;;;;;;;6.24;100.00;99667.91;5459711;24;20018;-81
2022/02/24 11:32:12;;;;;;;13.57;1.58;;;;;;;5.20;100.00;99513.16;5246692;24;20040;-81
2022/02/24 11:34:56;;;;;;;9.23;1.15;;;;;;;6.14;100.00;99659.44;4773957;30;20016;-82
2022/02/24 11:37:26;;;;;;;5.97;0.97;;;;;;;6.75;100.00;99746.84;5081594;24;20040;-83
2022/02/24 11:40:07;;;;;;;12.13;1.50;;;;;;;5.10;100.00;99518.84;4757323;30;20094;-85
2022/02/24 11:42:35;;;;;;;9.52;1.10;;;;;;;5.44;100.00;99567.88;4759813;30;20048;-84
2022/02/24 11:50:11;;;;;;;9.10;1.25;;;;;;;6.48;100.00;99735.22;5129142;24;20076;-85
2022/02/24 11:52:46;;;;;;;7.05;1.00;;;;;;;6.55;100.00;99755.59;4807978;29;20032;-83
2022/02/24 11:55:47;;;;;;;8.88;1.35;;;;;;;6.61;100.00;99764.69;4842556;24;21123;-82
2022/02/24 11:58:29;;;;;;;9.05;1.50;;;;;;;6.57;100.00;99739.38;4791689;29;20062;-84
2022/02/24 12:01:27;;;;;;;10.60;1.48;;;;;;;6.59;100.00;99740.00;4783632;30;20052;-84
2022/02/24 12:03:55;;;;;;;9.95;1.23;;;;;;;4.70;100.00;99453.75;5177945;24;20046;-82
2022/02/24 12:06:36;;;;;;;10.77;1.58;;;;;;;5.23;100.00;99541.25;4790518;30;20016;-80
2022/02/24 12:09:01;;;;;;;10.73;1.40;;;;;;;6.45;100.00;99728.41;4789270;30;20032;-84
2022/02/24 12:11:29;;;;;;;6.82;1.17;;;;;;;6.46;100.00;99722.06;4791674;30;20036;-80
2022/02/24 12:13:55;;;;;;;8.90;1.08;;;;;;;6.39;100.00;99712.34;4788762;29;20035;-80
2022/02/24 12:16:21;;;;;;;9.18;1.20;;;;;;;6.42;100.00;99725.31;4790408;29;20043;-82
2022/02/24 12:21:33;;;;;;;8.80;1.00;;;;;;;6.43;100.00;99717.13;4772975;30;19932;-83
2022/02/24 12:24:04;;;;;;;14.30;1.92;;;;;;;4.73;100.00;99464.03;4775936;30;20539;-81
2022/02/24 12:26:38;;;;;;;10.48;1.33;;;;;;;4.76;100.00;99476.13;4776788;30;20056;-81
2022/02/24 12:29:42;;;;;;;17.90;2.03;;;;;;;5.83;100.00;99652.69;4772937;30;20015;-83
2022/02/24 12:32:11;;;;;;;9.13;1.08;;;;;;;4.51;100.00;99449.94;4758974;30;20051;-83
2022/02/24 12:34:37;;;;;;;13.57;1.48;;;;;;;4.57;100.00;99456.31;4771584;30;20091;-83
2022/02/24 12:37:11;;;;;;;11.07;1.27;;;;;;;4.56;100.00;99455.50;4773518;30;20070;-82
2022/02/24 12:39:37;;;;;;;10.75;1.33;;;;;;;4.97;100.00;99515.22;4773177;30;20049;-81
2022/02/24 12:42:04;;;;;;;10.90;1.30;;;;;;;6.09;100.00;99724.16;5169226;24;20047;-82
2022/02/24 12:44:31;;;;;;;8.20;1.42;;;;;;;4.70;100.00;99497.22;5491640;24;20084;-79
2022/02/24 12:46:57;;;;;;;7.70;0.98;;;;;;;5.01;100.00;99560.00;4771773;30;20050;-82
2022/02/24 12:49:23;;;;;;;9.75;1.23;;;;;;;5.62;100.00;99658.06;4790040;29;20083;-83
2022/02/24 12:51:48;;;;;;;7.90;1.38;;;;;;;4.37;100.00;99477.47;4808115;24;20059;-82
2022/02/24 12:56:49;;;;;;;15.98;2.58;;;;;;;4.19;100.00;99513.34;4825186;24;20059;-83
2022/02/24 13:04:26;;;;;;;15.00;1.63;;;;;;;4.54;100.00;99582.75;5418460;24;20056;-81
2022/02/24 13:06:51;;;;;;;13.45;2.13;;;;;;;4.24;100.00;99556.22;4789140;29;20106;-83
2022/02/24 13:12:10;;;;;;;20.43;2.60;;;;;;;3.81;100.00;99496.78;4794830;29;20026;-83
2022/02/24 13:19:46;;;;;;;15.43;2.65;;;;;;;4.13;100.00;99522.09;4803164;24;20062;-82
2022/02/24 13:22:11;;;;;;;19.40;2.50;;;;;;;3.68;100.00;99459.38;4801036;29;20039;-81
2022/02/24 13:27:20;;;;;;;17.15;2.25;;;;;;;3.39;100.00;99439.00;5013969;24;20055;-81
2022/02/24 13:29:50;;;;;;;19.70;2.60;;;;;;;4.85;100.00;99688.19;4798357;29;20012;-82
2022/02/24 13:32:21;;;;;;;22.25;2.47;;;;;;;4.19;100.00;99573.75;4893379;24;20091;-83
2022/02/24 13:34:50;;;;;;;18.52;2.80;;;;;;;2.88;100.00;99381.31;4771979;30;20039;-81
2022/02/24 13:37:16;;;;;;;14.65;2.40;;;;;;;2.84;100.00;99382.69;4864348;24;20078;-82
2022/02/24 13:39:49;;;;;;;14.18;2.25;;;;;;;4.60;100.00;99666.41;4780404;30;20079;-81
2022/02/24 13:42:19;;;;;;;15.13;2.17;;;;;;;3.76;100.00;99550.53;4783745;29;20066;-80
2022/02/24 13:47:21;;;;;;;11.38;1.75;;;;;;;3.01;100.00;99468.34;5460914;24;20138;-83
2022/02/24 13:49:47;;;;;;;20.65;2.15;;;;;;;2.68;100.00;99436.81;4783662;29;20067;-82
2022/02/24 13:52:33;;;;;;;12.50;1.50;;;;;;;4.11;100.00;99649.25;4776795;30;20032;-80
2022/02/24 13:55:07;;;;;;;15.30;2.35;;;;;;;2.03;100.00;99353.31;4773826;30;20063;-79
2022/02/24 13:57:32;;;;;;;13.30;2.20;;;;;;;2.02;100.00;99343.72;4787183;30;20040;-83
2022/02/24 14:00:06;;;;;;;14.68;1.63;;;;;;;2.72;100.00;99458.53;4770998;30;20031;-80
2022/02/24 14:02:34;;;;;;;18.73;1.60;;;;;;;3.90;100.00;99643.84;4782355;30;20036;-81
2022/02/24 14:05:30;;;;;;;10.00;1.73;;;;;;;3.89;100.00;99626.22;4761252;30;20032;-79
2022/02/24 14:07:59;;;;;;;8.95;1.40;;;;;;;3.55;100.00;99562.97;4775904;30;20053;-78
2022/02/24 14:10:25;;;;;;;13.07;1.77;;;;;;;3.91;100.00;99617.06;4733391;30;20031;-81
2022/02/24 14:12:51;;;;;;;10.00;1.33;;;;;;;3.94;100.00;99613.19;4767280;30;20106;-83
2022/02/24 14:15:16;;;;;;;9.48;1.05;;;;;;;3.90;100.00;99586.13;4751518;30;20037;-79
2022/02/24 14:17:42;;;;;;;7.75;1.10;;;;;;;3.97;100.00;99591.53;4756170;30;20043;-80
2022/02/24 14:20:24;;;;;;;11.52;1.30;;;;;;;3.96;100.00;99590.69;4763150;30;20089;-79
2022/02/24 14:22:54;;;;;;;6.25;1.10;;;;;;;3.84;100.00;99599.34;4750683;30;20052;-78
2022/02/24 14:25:20;;;;;;;10.02;1.30;;;;;;;3.70;100.00;99582.38;4761200;30;20028;-79
2022/02/24 14:27:45;;;;;;;6.60;1.05;;;;;;;3.64;100.00;99573.31;4753156;30;20055;-78
2022/02/24 14:30:11;;;;;;;8.55;1.85;;;;;;;3.76;100.00;99593.09;4736738;30;20153;-78
2022/02/24 14:32:37;;;;;;;8.75;1.15;;;;;;;3.66;100.00;99567.81;4752551;30;20036;-78
2022/02/24 14:35:07;;;;;;;9.52;1.48;;;;;;;3.77;100.00;99585.94;4755702;30;20036;-78
2022/02/24 14:37:33;;;;;;;7.93;1.23;;;;;;;3.53;100.00;99537.34;4761579;30;20043;-79
2022/02/24 14:39:59;;;;;;;9.35;1.00;;;;;;;3.75;100.00;99562.19;4763155;30;20040;-80
2022/02/24 14:42:28;;;;;;;10.15;1.42;;;;;;;3.88;100.00;99560.72;4764676;30;20082;-79
2022/02/24 14:44:58;;;;;;;9.02;1.35;;;;;;;3.80;100.00;99536.88;4763713;30;20036;-81
2022/02/24 14:47:25;;;;;;;10.20;1.98;;;;;;;3.84;100.00;99527.50;4758905;30;20056;-82
2022/02/24 14:49:50;;;;;;;8.05;1.67;;;;;;;3.89;100.00;99535.75;4764800;30;20044;-79
2022/02/24 14:52:17;;;;;;;6.03;1.45;;;;;;;3.87;100.00;99538.59;4751593;30;20105;-79